sensor_id;sensor_type;location;lat;lon;timestamp;P1;durP1;ratioP1;P2;durP2;ratioP2
16837;SDS011;19510;54.486;9.046;2023-04-16T06:14:17;18.75;;;11.35;;
16837;SDS011;19510;54.486;9.046;2023-04-16T06:16:45;21.50;;;11.70;;
16837;SDS011;19510;54.486;9.046;2023-04-16T06:19:11;20.48;;;11.10;;
16837;SDS011;19510;54.486;9.046;2023-04-16T06:21:37;23.80;;;12.45;;
16837;SDS011;19510;54.486;9.046;2023-04-16T06:24:02;18.38;;;11.52;;
16837;SDS011;19510;54.486;9.046;2023-04-16T06:26:28;17.48;;;11.32;;
16837;SDS011;19510;54.486;9.046;2023-04-16T06:28:54;15.55;;;10.70;;
16837;SDS011;19510;54.486;9.046;2023-04-16T06:31:20;18.88;;;11.10;;
16837;SDS011;19510;54.486;9.046;2023-04-16T06:33:45;16.67;;;10.35;;
16837;SDS011;19510;54.486;9.046;2023-04-16T06:36:11;17.77;;;10.68;;
16837;SDS011;19510;54.486;9.046;2023-04-16T06:38:37;19.08;;;11.63;;
16837;SDS011;19510;54.486;9.046;2023-04-16T06:41:02;18.13;;;11.05;;
16837;SDS011;19510;54.486;9.046;2023-04-16T06:43:28;18.52;;;11.07;;
16837;SDS011;19510;54.486;9.046;2023-04-16T06:45:55;16.95;;;10.60;;
16837;SDS011;19510;54.486;9.046;2023-04-16T06:48:23;22.08;;;11.52;;
16837;SDS011;19510;54.486;9.046;2023-04-16T06:50:49;25.67;;;11.38;;
16837;SDS011;19510;54.486;9.046;2023-04-16T06:53:15;17.05;;;11.25;;
16837;SDS011;19510;54.486;9.046;2023-04-16T06:55:40;22.02;;;11.13;;
16837;SDS011;19510;54.486;9.046;2023-04-16T06:58:06;18.58;;;10.80;;
16837;SDS011;19510;54.486;9.046;2023-04-16T07:00:32;17.85;;;9.65;;
16837;SDS011;19510;54.486;9.046;2023-04-16T07:02:59;18.58;;;10.07;;
16837;SDS011;19510;54.486;9.046;2023-04-16T07:05:25;15.50;;;9.65;;
16837;SDS011;19510;54.486;9.046;2023-04-16T07:07:51;20.00;;;10.02;;
16837;SDS011;19510;54.486;9.046;2023-04-16T07:10:17;18.13;;;10.35;;
16837;SDS011;19510;54.486;9.046;2023-04-16T07:12:42;16.85;;;10.73;;
16837;SDS011;19510;54.486;9.046;2023-04-16T07:15:08;17.25;;;10.90;;
16837;SDS011;19510;54.486;9.046;2023-04-16T07:17:34;18.50;;;10.75;;
16837;SDS011;19510;54.486;9.046;2023-04-16T07:20:00;16.10;;;10.50;;
16837;SDS011;19510;54.486;9.046;2023-04-16T07:22:26;15.57;;;10.15;;
16837;SDS011;19510;54.486;9.046;2023-04-16T07:24:52;17.00;;;10.20;;
16837;SDS011;19510;54.486;9.046;2023-04-16T07:27:17;16.88;;;9.57;;
16837;SDS011;19510;54.486;9.046;2023-04-16T07:29:43;17.63;;;10.63;;
16837;SDS011;19510;54.486;9.046;2023-04-16T07:32:10;13.63;;;9.38;;
16837;SDS011;19510;54.486;9.046;2023-04-16T07:34:36;18.77;;;10.60;;
16837;SDS011;19510;54.486;9.046;2023-04-16T07:37:02;17.70;;;9.95;;
16837;SDS011;19510;54.486;9.046;2023-04-16T07:39:27;19.00;;;10.40;;
16837;SDS011;19510;54.486;9.046;2023-04-16T07:41:53;17.77;;;10.82;;
16837;SDS011;19510;54.486;9.046;2023-04-16T07:44:19;15.18;;;10.13;;
16837;SDS011;19510;54.486;9.046;2023-04-16T07:46:45;15.73;;;10.35;;
16837;SDS011;19510;54.486;9.046;2023-04-16T07:49:11;18.45;;;10.30;;
16837;SDS011;19510;54.486;9.046;2023-04-16T07:51:36;15.98;;;9.63;;
16837;SDS011;19510;54.486;9.046;2023-04-16T07:54:02;16.10;;;10.48;;
16837;SDS011;19510;54.486;9.046;2023-04-16T07:56:28;17.88;;;10.75;;
16837;SDS011;19510;54.486;9.046;2023-04-16T07:59:03;18.05;;;10.38;;
16837;SDS011;19510;54.486;9.046;2023-04-16T08:01:29;14.48;;;10.20;;
16837;SDS011;19510;54.486;9.046;2023-04-16T08:03:55;18.42;;;12.70;;
16837;SDS011;19510;54.486;9.046;2023-04-16T08:06:21;15.55;;;10.45;;
16837;SDS011;19510;54.486;9.046;2023-04-16T08:08:46;18.80;;;11.18;;
16837;SDS011;19510;54.486;9.046;2023-04-16T08:11:12;20.42;;;11.23;;
16837;SDS011;19510;54.486;9.046;2023-04-16T08:13:39;17.98;;;11.32;;
16837;SDS011;19510;54.486;9.046;2023-04-16T08:16:05;19.83;;;12.25;;
16837;SDS011;19510;54.486;9.046;2023-04-16T08:18:31;18.88;;;12.25;;
16837;SDS011;19510;54.486;9.046;2023-04-16T08:20:56;18.92;;;11.93;;
16837;SDS011;19510;54.486;9.046;2023-04-16T08:23:22;19.17;;;11.80;;
16837;SDS011;19510;54.486;9.046;2023-04-16T08:25:49;19.55;;;11.68;;
16837;SDS011;19510;54.486;9.046;2023-04-16T08:28:15;19.80;;;11.38;;
16837;SDS011;19510;54.486;9.046;2023-04-16T08:30:40;18.77;;;11.48;;
16837;SDS011;19510;54.486;9.046;2023-04-16T08:33:06;24.42;;;13.00;;
16837;SDS011;19510;54.486;9.046;2023-04-16T08:35:32;18.23;;;12.57;;
16837;SDS011;19510;54.486;9.046;2023-04-16T08:38:01;19.15;;;11.57;;
16837;SDS011;19510;54.486;9.046;2023-04-16T08:40:34;19.92;;;12.35;;
16837;SDS011;19510;54.486;9.046;2023-04-16T08:43:04;21.75;;;12.15;;
16837;SDS011;19510;54.486;9.046;2023-04-16T08:45:34;17.73;;;12.18;;
16837;SDS011;19510;54.486;9.046;2023-04-16T08:48:04;20.83;;;12.05;;
16837;SDS011;19510;54.486;9.046;2023-04-16T08:50:31;19.55;;;11.48;;
16837;SDS011;19510;54.486;9.046;2023-04-16T08:52:59;18.30;;;11.65;;
16837;SDS011;19510;54.486;9.046;2023-04-16T08:55:32;17.02;;;11.35;;
16837;SDS011;19510;54.486;9.046;2023-04-16T08:58:12;18.42;;;11.82;;
16837;SDS011;19510;54.486;9.046;2023-04-16T09:00:39;16.60;;;11.25;;
16837;SDS011;19510;54.486;9.046;2023-04-16T09:03:06;19.83;;;11.45;;
16837;SDS011;19510;54.486;9.046;2023-04-16T09:05:33;18.63;;;11.30;;
16837;SDS011;19510;54.486;9.046;2023-04-16T09:07:59;19.17;;;11.90;;
16837;SDS011;19510;54.486;9.046;2023-04-16T09:10:27;20.55;;;10.70;;
16837;SDS011;19510;54.486;9.046;2023-04-16T09:12:54;17.92;;;11.13;;
16837;SDS011;19510;54.486;9.046;2023-04-16T09:15:20;16.50;;;10.98;;
16837;SDS011;19510;54.486;9.046;2023-04-16T09:17:47;16.17;;;10.63;;
16837;SDS011;19510;54.486;9.046;2023-04-16T09:20:15;16.73;;;10.38;;
16837;SDS011;19510;54.486;9.046;2023-04-16T09:22:40;17.67;;;11.15;;
16837;SDS011;19510;54.486;9.046;2023-04-16T09:25:08;17.83;;;10.35;;
16837;SDS011;19510;54.486;9.046;2023-04-16T09:27:35;18.10;;;11.23;;
16837;SDS011;19510;54.486;9.046;2023-04-16T09:32:47;17.95;;;10.68;;
16837;SDS011;19510;54.486;9.046;2023-04-16T09:35:13;16.83;;;9.85;;
16837;SDS011;19510;54.486;9.046;2023-04-16T09:37:39;19.35;;;10.75;;
16837;SDS011;19510;54.486;9.046;2023-04-16T09:40:14;15.23;;;9.68;;
16837;SDS011;19510;54.486;9.046;2023-04-16T09:43:10;19.48;;;11.00;;
16837;SDS011;19510;54.486;9.046;2023-04-16T09:45:55;18.60;;;10.23;;
16837;SDS011;19510;54.486;9.046;2023-04-16T09:48:28;16.55;;;11.10;;
16837;SDS011;19510;54.486;9.046;2023-04-16T09:50:55;20.67;;;11.02;;
16837;SDS011;19510;54.486;9.046;2023-04-16T09:53:24;20.00;;;11.23;;
16837;SDS011;19510;54.486;9.046;2023-04-16T09:59:54;16.33;;;10.48;;
16837;SDS011;19510;54.486;9.046;2023-04-16T10:02:26;18.05;;;10.88;;
16837;SDS011;19510;54.486;9.046;2023-04-16T10:04:52;16.48;;;10.65;;
16837;SDS011;19510;54.486;9.046;2023-04-16T10:07:26;17.02;;;9.93;;
16837;SDS011;19510;54.486;9.046;2023-04-16T10:10:02;16.70;;;9.20;;
16837;SDS011;19510;54.486;9.046;2023-04-16T10:12:32;15.95;;;9.82;;
16837;SDS011;19510;54.486;9.046;2023-04-16T10:14:58;18.75;;;10.18;;
16837;SDS011;19510;54.486;9.046;2023-04-16T10:17:25;16.15;;;9.40;;
16837;SDS011;19510;54.486;9.046;2023-04-16T10:19:55;20.77;;;12.73;;
16837;SDS011;19510;54.486;9.046;2023-04-16T10:22:22;16.90;;;9.43;;
16837;SDS011;19510;54.486;9.046;2023-04-16T10:34:43;17.50;;;10.30;;
16837;SDS011;19510;54.486;9.046;2023-04-16T10:37:09;17.13;;;10.13;;
16837;SDS011;19510;54.486;9.046;2023-04-16T10:39:35;16.88;;;10.25;;
16837;SDS011;19510;54.486;9.046;2023-04-16T10:42:08;16.00;;;9.88;;
16837;SDS011;19510;54.486;9.046;2023-04-16T10:44:38;19.58;;;10.23;;
16837;SDS011;19510;54.486;9.046;2023-04-16T10:47:11;31.73;;;11.65;;
16837;SDS011;19510;54.486;9.046;2023-04-16T10:49:37;17.23;;;10.27;;
16837;SDS011;19510;54.486;9.046;2023-04-16T10:52:11;17.27;;;10.75;;
16837;SDS011;19510;54.486;9.046;2023-04-16T10:54:39;17.40;;;9.70;;
16837;SDS011;19510;54.486;9.046;2023-04-16T10:57:09;20.85;;;11.43;;
16837;SDS011;19510;54.486;9.046;2023-04-16T10:59:42;19.02;;;11.10;;
16837;SDS011;19510;54.486;9.046;2023-04-16T11:02:15;22.33;;;11.30;;
16837;SDS011;19510;54.486;9.046;2023-04-16T11:04:42;20.52;;;10.90;;
16837;SDS011;19510;54.486;9.046;2023-04-16T11:12:12;20.45;;;10.50;;
16837;SDS011;19510;54.486;9.046;2023-04-16T11:14:40;21.30;;;10.68;;
16837;SDS011;19510;54.486;9.046;2023-04-16T11:17:06;18.38;;;10.70;;
16837;SDS011;19510;54.486;9.046;2023-04-16T11:19:34;17.25;;;10.25;;
16837;SDS011;19510;54.486;9.046;2023-04-16T11:22:01;22.33;;;11.23;;
16837;SDS011;19510;54.486;9.046;2023-04-16T11:24:33;18.65;;;10.88;;
16837;SDS011;19510;54.486;9.046;2023-04-16T11:27:07;20.17;;;11.15;;
16837;SDS011;19510;54.486;9.046;2023-04-16T11:29:39;18.63;;;11.10;;
16837;SDS011;19510;54.486;9.046;2023-04-16T11:32:05;17.65;;;11.77;;
16837;SDS011;19510;54.486;9.046;2023-04-16T11:34:31;18.63;;;10.50;;
16837;SDS011;19510;54.486;9.046;2023-04-16T11:37:02;20.48;;;11.02;;
16837;SDS011;19510;54.486;9.046;2023-04-16T11:39:28;20.65;;;11.00;;
16837;SDS011;19510;54.486;9.046;2023-04-16T11:41:54;18.77;;;10.35;;
16837;SDS011;19510;54.486;9.046;2023-04-16T11:44:20;22.58;;;10.48;;
16837;SDS011;19510;54.486;9.046;2023-04-16T11:46:48;15.65;;;9.98;;
16837;SDS011;19510;54.486;9.046;2023-04-16T11:49:14;15.30;;;9.50;;
16837;SDS011;19510;54.486;9.046;2023-04-16T11:51:43;18.02;;;10.30;;
16837;SDS011;19510;54.486;9.046;2023-04-16T11:54:17;17.65;;;10.35;;
16837;SDS011;19510;54.486;9.046;2023-04-16T11:56:47;16.23;;;9.65;;
16837;SDS011;19510;54.486;9.046;2023-04-16T11:59:17;16.52;;;9.85;;
16837;SDS011;19510;54.486;9.046;2023-04-16T12:01:45;16.63;;;9.88;;
16837;SDS011;19510;54.486;9.046;2023-04-16T12:04:13;15.18;;;9.98;;
16837;SDS011;19510;54.486;9.046;2023-04-16T12:06:51;14.85;;;9.32;;
16837;SDS011;19510;54.486;9.046;2023-04-16T12:09:32;16.75;;;9.77;;
16837;SDS011;19510;54.486;9.046;2023-04-16T12:11:59;15.38;;;9.48;;
16837;SDS011;19510;54.486;9.046;2023-04-16T12:14:26;15.07;;;9.27;;
16837;SDS011;19510;54.486;9.046;2023-04-16T12:16:52;15.43;;;9.45;;
16837;SDS011;19510;54.486;9.046;2023-04-16T12:19:19;11.60;;;8.57;;
16837;SDS011;19510;54.486;9.046;2023-04-16T12:21:46;13.32;;;8.85;;
16837;SDS011;19510;54.486;9.046;2023-04-16T12:24:19;13.45;;;8.50;;
16837;SDS011;19510;54.486;9.046;2023-04-16T12:26:52;13.57;;;7.55;;
16837;SDS011;19510;54.486;9.046;2023-04-16T12:29:29;13.73;;;8.05;;
16837;SDS011;19510;54.486;9.046;2023-04-16T12:31:55;14.63;;;8.23;;
16837;SDS011;19510;54.486;9.046;2023-04-16T12:34:22;15.13;;;8.32;;
16837;SDS011;19510;54.486;9.046;2023-04-16T12:36:48;14.48;;;8.35;;
16837;SDS011;19510;54.486;9.046;2023-04-16T12:39:30;13.68;;;8.65;;
16837;SDS011;19510;54.486;9.046;2023-04-16T12:45:35;14.30;;;8.70;;
16837;SDS011;19510;54.486;9.046;2023-04-16T12:48:05;13.25;;;8.82;;
16837;SDS011;19510;54.486;9.046;2023-04-16T12:50:31;12.73;;;8.27;;
16837;SDS011;19510;54.486;9.046;2023-04-16T12:53:08;13.80;;;8.45;;
16837;SDS011;19510;54.486;9.046;2023-04-16T12:55:54;12.05;;;8.25;;
16837;SDS011;19510;54.486;9.046;2023-04-16T12:58:20;16.67;;;8.38;;
16837;SDS011;19510;54.486;9.046;2023-04-16T13:00:46;12.85;;;7.88;;
16837;SDS011;19510;54.486;9.046;2023-04-16T13:03:15;11.85;;;8.05;;
16837;SDS011;19510;54.486;9.046;2023-04-16T13:05:40;13.52;;;7.93;;
16837;SDS011;19510;54.486;9.046;2023-04-16T13:08:06;14.23;;;8.10;;
16837;SDS011;19510;54.486;9.046;2023-04-16T13:10:35;15.05;;;8.40;;
16837;SDS011;19510;54.486;9.046;2023-04-16T13:13:04;13.30;;;8.75;;
16837;SDS011;19510;54.486;9.046;2023-04-16T13:15:30;15.70;;;8.48;;
16837;SDS011;19510;54.486;9.046;2023-04-16T13:17:56;13.73;;;8.23;;
16837;SDS011;19510;54.486;9.046;2023-04-16T13:20:24;12.90;;;8.30;;
16837;SDS011;19510;54.486;9.046;2023-04-16T13:22:53;15.68;;;8.35;;
16837;SDS011;19510;54.486;9.046;2023-04-16T13:25:36;12.88;;;7.90;;
16837;SDS011;19510;54.486;9.046;2023-04-16T13:28:06;15.20;;;8.80;;
16837;SDS011;19510;54.486;9.046;2023-04-16T13:30:32;16.63;;;8.00;;
16837;SDS011;19510;54.486;9.046;2023-04-16T13:32:58;11.90;;;8.10;;
16837;SDS011;19510;54.486;9.046;2023-04-16T13:35:25;12.93;;;8.88;;
16837;SDS011;19510;54.486;9.046;2023-04-16T13:37:51;14.73;;;7.72;;
16837;SDS011;19510;54.486;9.046;2023-04-16T13:40:17;14.57;;;8.48;;
16837;SDS011;19510;54.486;9.046;2023-04-16T13:42:44;10.27;;;7.28;;
16837;SDS011;19510;54.486;9.046;2023-04-16T13:48:52;12.30;;;7.75;;
16837;SDS011;19510;54.486;9.046;2023-04-16T13:51:19;13.38;;;8.45;;
16837;SDS011;19510;54.486;9.046;2023-04-16T13:53:46;12.80;;;8.40;;
16837;SDS011;19510;54.486;9.046;2023-04-16T13:56:12;14.18;;;8.32;;
16837;SDS011;19510;54.486;9.046;2023-04-16T13:58:40;14.95;;;8.68;;
16837;SDS011;19510;54.486;9.046;2023-04-16T14:01:06;14.68;;;8.65;;
16837;SDS011;19510;54.486;9.046;2023-04-16T14:03:33;13.18;;;8.57;;
16837;SDS011;19510;54.486;9.046;2023-04-16T14:06:01;12.52;;;8.40;;
16837;SDS011;19510;54.486;9.046;2023-04-16T14:08:31;14.35;;;8.48;;
16837;SDS011;19510;54.486;9.046;2023-04-16T14:10:59;13.52;;;7.70;;
16837;SDS011;19510;54.486;9.046;2023-04-16T14:13:26;11.40;;;8.45;;
16837;SDS011;19510;54.486;9.046;2023-04-16T14:22:56;13.52;;;8.05;;
16837;SDS011;19510;54.486;9.046;2023-04-16T14:25:24;13.93;;;8.05;;
16837;SDS011;19510;54.486;9.046;2023-04-16T14:27:55;14.23;;;8.93;;
16837;SDS011;19510;54.486;9.046;2023-04-16T14:33:52;15.00;;;8.52;;
16837;SDS011;19510;54.486;9.046;2023-04-16T14:36:17;17.08;;;9.00;;
16837;SDS011;19510;54.486;9.046;2023-04-16T14:38:43;13.35;;;8.38;;
16837;SDS011;19510;54.486;9.046;2023-04-16T14:41:11;15.20;;;8.02;;
16837;SDS011;19510;54.486;9.046;2023-04-16T14:43:37;13.30;;;8.35;;
16837;SDS011;19510;54.486;9.046;2023-04-16T14:46:05;12.77;;;8.40;;
16837;SDS011;19510;54.486;9.046;2023-04-16T14:48:34;13.55;;;8.45;;
16837;SDS011;19510;54.486;9.046;2023-04-16T14:54:13;13.27;;;8.80;;
16837;SDS011;19510;54.486;9.046;2023-04-16T14:56:39;17.77;;;8.60;;
16837;SDS011;19510;54.486;9.046;2023-04-16T14:59:05;13.93;;;8.10;;
16837;SDS011;19510;54.486;9.046;2023-04-16T15:01:34;12.27;;;8.23;;
16837;SDS011;19510;54.486;9.046;2023-04-16T15:04:03;13.77;;;8.57;;
16837;SDS011;19510;54.486;9.046;2023-04-16T15:06:30;15.63;;;8.98;;
16837;SDS011;19510;54.486;9.046;2023-04-16T15:09:05;15.98;;;9.07;;
16837;SDS011;19510;54.486;9.046;2023-04-16T15:11:33;14.27;;;8.18;;
16837;SDS011;19510;54.486;9.046;2023-04-16T15:14:02;14.13;;;8.93;;
16837;SDS011;19510;54.486;9.046;2023-04-16T15:17:19;14.65;;;8.85;;
16837;SDS011;19510;54.486;9.046;2023-04-16T15:19:46;15.77;;;8.27;;
16837;SDS011;19510;54.486;9.046;2023-04-16T15:22:14;14.85;;;8.50;;
16837;SDS011;19510;54.486;9.046;2023-04-16T15:24:41;15.98;;;8.55;;
16837;SDS011;19510;54.486;9.046;2023-04-16T15:27:07;14.88;;;8.57;;
16837;SDS011;19510;54.486;9.046;2023-04-16T15:29:33;16.00;;;8.50;;
16837;SDS011;19510;54.486;9.046;2023-04-16T15:31:59;14.20;;;7.85;;
16837;SDS011;19510;54.486;9.046;2023-04-16T15:34:25;13.95;;;8.73;;
16837;SDS011;19510;54.486;9.046;2023-04-16T15:36:51;15.80;;;8.88;;
16837;SDS011;19510;54.486;9.046;2023-04-16T15:39:17;16.80;;;9.10;;
16837;SDS011;19510;54.486;9.046;2023-04-16T15:41:44;13.23;;;8.18;;
16837;SDS011;19510;54.486;9.046;2023-04-16T15:44:11;13.93;;;8.75;;
16837;SDS011;19510;54.486;9.046;2023-04-16T15:56:36;13.48;;;7.88;;
16837;SDS011;19510;54.486;9.046;2023-04-16T15:59:01;17.45;;;8.57;;
16837;SDS011;19510;54.486;9.046;2023-04-16T16:01:31;16.30;;;8.55;;
16837;SDS011;19510;54.486;9.046;2023-04-16T16:04:34;13.15;;;8.85;;
16837;SDS011;19510;54.486;9.046;2023-04-16T16:07:00;19.95;;;9.15;;
16837;SDS011;19510;54.486;9.046;2023-04-16T16:09:27;16.30;;;9.15;;
16837;SDS011;19510;54.486;9.046;2023-04-16T16:11:53;15.25;;;8.98;;
16837;SDS011;19510;54.486;9.046;2023-04-16T16:14:19;12.55;;;8.00;;
16837;SDS011;19510;54.486;9.046;2023-04-16T16:17:09;19.70;;;9.65;;
16837;SDS011;19510;54.486;9.046;2023-04-16T16:19:35;13.52;;;8.43;;
16837;SDS011;19510;54.486;9.046;2023-04-16T16:22:00;15.90;;;8.70;;
16837;SDS011;19510;54.486;9.046;2023-04-16T16:24:27;12.60;;;7.88;;
16837;SDS011;19510;54.486;9.046;2023-04-16T16:26:52;13.50;;;8.98;;
16837;SDS011;19510;54.486;9.046;2023-04-16T16:29:18;18.23;;;9.85;;
16837;SDS011;19510;54.486;9.046;2023-04-16T16:31:44;22.08;;;10.77;;
16837;SDS011;19510;54.486;9.046;2023-04-16T16:34:10;15.88;;;8.50;;
16837;SDS011;19510;54.486;9.046;2023-04-16T16:36:36;13.73;;;8.63;;
16837;SDS011;19510;54.486;9.046;2023-04-16T16:39:04;14.02;;;9.18;;
16837;SDS011;19510;54.486;9.046;2023-04-16T16:41:46;18.48;;;8.90;;
16837;SDS011;19510;54.486;9.046;2023-04-16T16:44:16;14.77;;;8.63;;
16837;SDS011;19510;54.486;9.046;2023-04-16T16:46:45;12.25;;;9.13;;
16837;SDS011;19510;54.486;9.046;2023-04-16T16:49:11;14.98;;;9.02;;
16837;SDS011;19510;54.486;9.046;2023-04-16T16:51:37;18.33;;;9.43;;
16837;SDS011;19510;54.486;9.046;2023-04-16T16:54:05;14.18;;;8.18;;
16837;SDS011;19510;54.486;9.046;2023-04-16T16:56:31;13.20;;;8.70;;
16837;SDS011;19510;54.486;9.046;2023-04-16T16:58:57;15.13;;;8.27;;
16837;SDS011;19510;54.486;9.046;2023-04-16T17:01:23;13.27;;;8.65;;
16837;SDS011;19510;54.486;9.046;2023-04-16T17:03:50;14.10;;;8.45;;
16837;SDS011;19510;54.486;9.046;2023-04-16T17:06:16;14.02;;;8.63;;
16837;SDS011;19510;54.486;9.046;2023-04-16T17:08:41;16.73;;;8.30;;
16837;SDS011;19510;54.486;9.046;2023-04-16T17:11:07;14.45;;;7.95;;
16837;SDS011;19510;54.486;9.046;2023-04-16T17:13:33;14.75;;;8.70;;
16837;SDS011;19510;54.486;9.046;2023-04-16T17:15:59;13.15;;;9.10;;
16837;SDS011;19510;54.486;9.046;2023-04-16T17:18:25;14.63;;;8.88;;
16837;SDS011;19510;54.486;9.046;2023-04-16T17:20:51;14.25;;;8.30;;
16837;SDS011;19510;54.486;9.046;2023-04-16T17:23:17;15.25;;;8.57;;
16837;SDS011;19510;54.486;9.046;2023-04-16T17:25:46;14.95;;;8.75;;
16837;SDS011;19510;54.486;9.046;2023-04-16T17:28:14;15.90;;;9.57;;
16837;SDS011;19510;54.486;9.046;2023-04-16T17:30:40;14.63;;;9.02;;
16837;SDS011;19510;54.486;9.046;2023-04-16T17:33:07;14.68;;;8.65;;
16837;SDS011;19510;54.486;9.046;2023-04-16T17:35:33;13.70;;;8.82;;
16837;SDS011;19510;54.486;9.046;2023-04-16T17:37:59;11.63;;;8.32;;
16837;SDS011;19510;54.486;9.046;2023-04-16T17:40:25;16.08;;;9.00;;
16837;SDS011;19510;54.486;9.046;2023-04-16T17:42:58;13.75;;;8.45;;
16837;SDS011;19510;54.486;9.046;2023-04-16T17:45:24;17.48;;;9.82;;
16837;SDS011;19510;54.486;9.046;2023-04-16T17:47:50;14.82;;;9.55;;
16837;SDS011;19510;54.486;9.046;2023-04-16T17:50:15;16.77;;;9.80;;
16837;SDS011;19510;54.486;9.046;2023-04-16T17:52:42;13.55;;;8.95;;
16837;SDS011;19510;54.486;9.046;2023-04-16T17:55:09;13.82;;;9.43;;
16837;SDS011;19510;54.486;9.046;2023-04-16T17:57:35;15.68;;;9.18;;
16837;SDS011;19510;54.486;9.046;2023-04-16T18:00:01;14.15;;;9.48;;
16837;SDS011;19510;54.486;9.046;2023-04-16T18:02:30;14.20;;;8.40;;
16837;SDS011;19510;54.486;9.046;2023-04-16T18:04:56;17.90;;;9.48;;
16837;SDS011;19510;54.486;9.046;2023-04-16T18:07:21;14.80;;;9.88;;
16837;SDS011;19510;54.486;9.046;2023-04-16T18:09:47;14.52;;;9.27;;
16837;SDS011;19510;54.486;9.046;2023-04-16T18:12:15;26.02;;;14.77;;
16837;SDS011;19510;54.486;9.046;2023-04-16T18:14:41;16.23;;;9.15;;
16837;SDS011;19510;54.486;9.046;2023-04-16T18:17:08;17.40;;;9.02;;
16837;SDS011;19510;54.486;9.046;2023-04-16T18:19:34;16.42;;;9.80;;
16837;SDS011;19510;54.486;9.046;2023-04-16T18:22:00;13.85;;;9.25;;
16837;SDS011;19510;54.486;9.046;2023-04-16T18:24:26;15.70;;;10.00;;
16837;SDS011;19510;54.486;9.046;2023-04-16T18:26:52;21.00;;;10.40;;
16837;SDS011;19510;54.486;9.046;2023-04-16T18:29:17;17.83;;;9.77;;
16837;SDS011;19510;54.486;9.046;2023-04-16T18:31:46;16.00;;;9.75;;
16837;SDS011;19510;54.486;9.046;2023-04-16T18:34:14;16.48;;;9.13;;
16837;SDS011;19510;54.486;9.046;2023-04-16T18:36:40;16.65;;;9.77;;
16837;SDS011;19510;54.486;9.046;2023-04-16T18:39:05;13.88;;;9.35;;
16837;SDS011;19510;54.486;9.046;2023-04-16T18:41:32;15.38;;;8.60;;
16837;SDS011;19510;54.486;9.046;2023-04-16T18:43:57;12.18;;;8.98;;
16837;SDS011;19510;54.486;9.046;2023-04-16T18:46:23;15.63;;;9.63;;
16837;SDS011;19510;54.486;9.046;2023-04-16T18:48:50;16.23;;;9.35;;
16837;SDS011;19510;54.486;9.046;2023-04-16T18:51:17;16.52;;;9.88;;
16837;SDS011;19510;54.486;9.046;2023-04-16T18:53:43;17.08;;;9.55;;
16837;SDS011;19510;54.486;9.046;2023-04-16T18:56:09;19.45;;;9.77;;
16837;SDS011;19510;54.486;9.046;2023-04-16T18:58:37;15.73;;;9.32;;
16837;SDS011;19510;54.486;9.046;2023-04-16T19:01:03;16.65;;;9.57;;
16837;SDS011;19510;54.486;9.046;2023-04-16T19:03:31;14.27;;;9.27;;
16837;SDS011;19510;54.486;9.046;2023-04-16T19:05:57;14.82;;;10.02;;
16837;SDS011;19510;54.486;9.046;2023-04-16T19:08:23;15.57;;;10.13;;
16837;SDS011;19510;54.486;9.046;2023-04-16T19:10:49;15.90;;;9.85;;
16837;SDS011;19510;54.486;9.046;2023-04-16T19:13:15;21.00;;;10.73;;
16837;SDS011;19510;54.486;9.046;2023-04-16T19:15:41;17.95;;;10.18;;
16837;SDS011;19510;54.486;9.046;2023-04-16T19:18:07;20.63;;;11.00;;
16837;SDS011;19510;54.486;9.046;2023-04-16T19:20:33;18.33;;;9.90;;
16837;SDS011;19510;54.486;9.046;2023-04-16T19:22:59;18.77;;;10.10;;
16837;SDS011;19510;54.486;9.046;2023-04-16T19:25:26;16.15;;;10.23;;
16837;SDS011;19510;54.486;9.046;2023-04-16T19:27:52;14.40;;;10.02;;
16837;SDS011;19510;54.486;9.046;2023-04-16T19:30:20;16.38;;;9.82;;
16837;SDS011;19510;54.486;9.046;2023-04-16T19:32:55;17.70;;;10.10;;
16837;SDS011;19510;54.486;9.046;2023-04-16T19:35:21;18.98;;;10.07;;
16837;SDS011;19510;54.486;9.046;2023-04-16T19:37:46;17.25;;;9.52;;
16837;SDS011;19510;54.486;9.046;2023-04-16T19:40:12;15.20;;;9.18;;
16837;SDS011;19510;54.486;9.046;2023-04-16T19:42:38;15.15;;;9.02;;
16837;SDS011;19510;54.486;9.046;2023-04-16T19:45:04;13.90;;;9.48;;
16837;SDS011;19510;54.486;9.046;2023-04-16T19:47:31;15.57;;;9.50;;
16837;SDS011;19510;54.486;9.046;2023-04-16T19:49:56;18.65;;;10.32;;
16837;SDS011;19510;54.486;9.046;2023-04-16T19:52:22;15.27;;;9.65;;
16837;SDS011;19510;54.486;9.046;2023-04-16T19:54:48;21.33;;;10.30;;
16837;SDS011;19510;54.486;9.046;2023-04-16T19:57:13;17.17;;;9.50;;
16837;SDS011;19510;54.486;9.046;2023-04-16T19:59:39;15.40;;;8.88;;
16837;SDS011;19510;54.486;9.046;2023-04-16T20:02:05;18.88;;;9.50;;
16837;SDS011;19510;54.486;9.046;2023-04-16T20:04:31;15.15;;;8.95;;
16837;SDS011;19510;54.486;9.046;2023-04-16T20:06:57;14.52;;;9.00;;
16837;SDS011;19510;54.486;9.046;2023-04-16T20:09:23;18.67;;;10.25;;
16837;SDS011;19510;54.486;9.046;2023-04-16T20:11:49;16.55;;;10.18;;
16837;SDS011;19510;54.486;9.046;2023-04-16T20:14:18;14.52;;;10.00;;
16837;SDS011;19510;54.486;9.046;2023-04-16T20:16:44;19.40;;;10.90;;
16837;SDS011;19510;54.486;9.046;2023-04-16T20:19:10;18.90;;;10.63;;
16837;SDS011;19510;54.486;9.046;2023-04-16T20:21:40;19.55;;;11.38;;
16837;SDS011;19510;54.486;9.046;2023-04-16T20:24:07;17.15;;;11.02;;
16837;SDS011;19510;54.486;9.046;2023-04-16T20:26:34;16.13;;;10.70;;
16837;SDS011;19510;54.486;9.046;2023-04-16T20:29:00;15.98;;;10.63;;
16837;SDS011;19510;54.486;9.046;2023-04-16T20:31:26;18.95;;;11.25;;
16837;SDS011;19510;54.486;9.046;2023-04-16T20:33:52;17.52;;;11.43;;
16837;SDS011;19510;54.486;9.046;2023-04-16T20:36:18;17.85;;;11.07;;
16837;SDS011;19510;54.486;9.046;2023-04-16T20:38:45;18.23;;;10.95;;
16837;SDS011;19510;54.486;9.046;2023-04-16T20:41:10;16.23;;;11.02;;
16837;SDS011;19510;54.486;9.046;2023-04-16T20:43:40;21.00;;;11.55;;
16837;SDS011;19510;54.486;9.046;2023-04-16T20:46:07;21.33;;;11.25;;
16837;SDS011;19510;54.486;9.046;2023-04-16T20:48:33;19.95;;;10.85;;
16837;SDS011;19510;54.486;9.046;2023-04-16T20:50:59;18.35;;;11.43;;
16837;SDS011;19510;54.486;9.046;2023-04-16T20:53:26;20.73;;;11.70;;
16837;SDS011;19510;54.486;9.046;2023-04-16T20:55:52;17.70;;;10.45;;
16837;SDS011;19510;54.486;9.046;2023-04-16T20:58:18;20.15;;;11.70;;
16837;SDS011;19510;54.486;9.046;2023-04-16T21:00:47;19.27;;;11.23;;
16837;SDS011;19510;54.486;9.046;2023-04-16T21:03:16;16.13;;;10.73;;
16837;SDS011;19510;54.486;9.046;2023-04-16T21:05:52;15.95;;;10.45;;
16837;SDS011;19510;54.486;9.046;2023-04-16T21:08:22;17.60;;;10.52;;
16837;SDS011;19510;54.486;9.046;2023-04-16T21:10:49;15.45;;;11.23;;
16837;SDS011;19510;54.486;9.046;2023-04-16T21:13:15;19.55;;;11.05;;
16837;SDS011;19510;54.486;9.046;2023-04-16T21:15:41;17.98;;;10.80;;
16837;SDS011;19510;54.486;9.046;2023-04-16T21:18:08;14.40;;;9.88;;
16837;SDS011;19510;54.486;9.046;2023-04-16T21:20:35;20.17;;;11.00;;
16837;SDS011;19510;54.486;9.046;2023-04-16T21:23:03;16.95;;;10.48;;
16837;SDS011;19510;54.486;9.046;2023-04-16T21:25:33;18.17;;;10.60;;
16837;SDS011;19510;54.486;9.046;2023-04-16T21:28:03;17.00;;;10.27;;
16837;SDS011;19510;54.486;9.046;2023-04-16T21:30:29;18.30;;;10.55;;
16837;SDS011;19510;54.486;9.046;2023-04-16T21:32:54;17.60;;;10.18;;
16837;SDS011;19510;54.486;9.046;2023-04-16T21:35:20;21.20;;;10.57;;
16837;SDS011;19510;54.486;9.046;2023-04-16T21:37:45;15.65;;;10.40;;